sensor_id;sensor_type;location;lat;lon;timestamp;temperature;humidity
8892;DHT22;4482;54.332;10.118;2023-05-03T00:01:33;5.50;99.90
8892;DHT22;4482;54.332;10.118;2023-05-03T00:04:01;5.50;99.90
8892;DHT22;4482;54.332;10.118;2023-05-03T00:06:28;5.50;99.90
8892;DHT22;4482;54.332;10.118;2023-05-03T00:08:55;5.50;99.90
8892;DHT22;4482;54.332;10.118;2023-05-03T00:11:22;5.50;99.90
8892;DHT22;4482;54.332;10.118;2023-05-03T00:13:50;5.50;99.90
8892;DHT22;4482;54.332;10.118;2023-05-03T00:16:17;5.50;99.90
8892;DHT22;4482;54.332;10.118;2023-05-03T00:18:44;5.50;99.90
8892;DHT22;4482;54.332;10.118;2023-05-03T00:21:10;5.50;99.90
8892;DHT22;4482;54.332;10.118;2023-05-03T00:23:37;5.60;99.90
8892;DHT22;4482;54.332;10.118;2023-05-03T00:26:03;5.50;99.90
8892;DHT22;4482;54.332;10.118;2023-05-03T00:28:30;5.50;99.90
8892;DHT22;4482;54.332;10.118;2023-05-03T00:31:04;5.50;99.90
8892;DHT22;4482;54.332;10.118;2023-05-03T00:33:31;5.50;99.90
8892;DHT22;4482;54.332;10.118;2023-05-03T00:35:58;5.50;99.90
8892;DHT22;4482;54.332;10.118;2023-05-03T00:38:24;5.50;99.90
8892;DHT22;4482;54.332;10.118;2023-05-03T00:40:52;5.50;99.90
8892;DHT22;4482;54.332;10.118;2023-05-03T00:43:19;5.50;99.90
8892;DHT22;4482;54.332;10.118;2023-05-03T00:45:45;5.50;99.90
8892;DHT22;4482;54.332;10.118;2023-05-03T00:48:14;5.50;99.90
8892;DHT22;4482;54.332;10.118;2023-05-03T00:50:42;5.40;99.90
8892;DHT22;4482;54.332;10.118;2023-05-03T00:53:08;5.40;99.90
8892;DHT22;4482;54.332;10.118;2023-05-03T00:55:35;5.40;99.90
8892;DHT22;4482;54.332;10.118;2023-05-03T00:58:02;5.40;99.90
8892;DHT22;4482;54.332;10.118;2023-05-03T01:00:29;5.30;99.90
8892;DHT22;4482;54.332;10.118;2023-05-03T01:02:57;5.30;99.90
8892;DHT22;4482;54.332;10.118;2023-05-03T01:05:25;5.20;99.90
8892;DHT22;4482;54.332;10.118;2023-05-03T01:07:55;5.20;99.90
8892;DHT22;4482;54.332;10.118;2023-05-03T01:10:30;5.20;99.90
8892;DHT22;4482;54.332;10.118;2023-05-03T01:13:02;5.20;99.90
8892;DHT22;4482;54.332;10.118;2023-05-03T01:15:35;5.30;99.90
8892;DHT22;4482;54.332;10.118;2023-05-03T01:18:05;5.40;99.90
8892;DHT22;4482;54.332;10.118;2023-05-03T01:20:34;5.80;99.90
8892;DHT22;4482;54.332;10.118;2023-05-03T01:23:04;5.70;99.90
8892;DHT22;4482;54.332;10.118;2023-05-03T01:25:33;5.60;99.90
8892;DHT22;4482;54.332;10.118;2023-05-03T01:28:00;5.50;99.90
8892;DHT22;4482;54.332;10.118;2023-05-03T01:30:26;5.30;99.90
8892;DHT22;4482;54.332;10.118;2023-05-03T01:32:55;5.30;99.90
8892;DHT22;4482;54.332;10.118;2023-05-03T01:35:28;5.20;99.90
8892;DHT22;4482;54.332;10.118;2023-05-03T01:37:55;5.20;99.90
8892;DHT22;4482;54.332;10.118;2023-05-03T01:40:22;5.20;99.90
8892;DHT22;4482;54.332;10.118;2023-05-03T01:42:51;5.30;99.90
8892;DHT22;4482;54.332;10.118;2023-05-03T01:45:20;5.20;99.90
8892;DHT22;4482;54.332;10.118;2023-05-03T01:47:47;5.20;99.90
8892;DHT22;4482;54.332;10.118;2023-05-03T01:50:13;5.20;99.90
8892;DHT22;4482;54.332;10.118;2023-05-03T01:52:40;5.20;99.90
8892;DHT22;4482;54.332;10.118;2023-05-03T01:55:07;5.20;99.90
8892;DHT22;4482;54.332;10.118;2023-05-03T01:57:34;5.20;99.90
8892;DHT22;4482;54.332;10.118;2023-05-03T02:00:02;5.20;99.90
8892;DHT22;4482;54.332;10.118;2023-05-03T02:02:29;5.20;99.90
8892;DHT22;4482;54.332;10.118;2023-05-03T02:04:56;5.20;99.90
8892;DHT22;4482;54.332;10.118;2023-05-03T02:07:23;5.20;99.90
8892;DHT22;4482;54.332;10.118;2023-05-03T02:09:50;5.20;99.90
8892;DHT22;4482;54.332;10.118;2023-05-03T02:12:16;5.20;99.90
8892;DHT22;4482;54.332;10.118;2023-05-03T02:14:43;5.20;99.90
8892;DHT22;4482;54.332;10.118;2023-05-03T02:17:11;5.20;99.90
8892;DHT22;4482;54.332;10.118;2023-05-03T02:19:38;5.10;99.90
8892;DHT22;4482;54.332;10.118;2023-05-03T02:22:05;5.10;99.90
8892;DHT22;4482;54.332;10.118;2023-05-03T02:24:31;5.10;99.90
8892;DHT22;4482;54.332;10.118;2023-05-03T02:27:00;5.10;99.90
8892;DHT22;4482;54.332;10.118;2023-05-03T02:29:28;5.10;99.90
8892;DHT22;4482;54.332;10.118;2023-05-03T02:31:55;5.10;99.90
8892;DHT22;4482;54.332;10.118;2023-05-03T02:34:23;5.10;99.90
8892;DHT22;4482;54.332;10.118;2023-05-03T02:36:50;5.10;99.90
8892;DHT22;4482;54.332;10.118;2023-05-03T02:39:17;5.10;99.90
8892;DHT22;4482;54.332;10.118;2023-05-03T02:41:43;5.10;99.90
8892;DHT22;4482;54.332;10.118;2023-05-03T02:44:10;5.10;99.90
8892;DHT22;4482;54.332;10.118;2023-05-03T02:46:37;5.10;99.90
8892;DHT22;4482;54.332;10.118;2023-05-03T02:49:04;5.00;99.90
8892;DHT22;4482;54.332;10.118;2023-05-03T02:51:32;5.00;99.90
8892;DHT22;4482;54.332;10.118;2023-05-03T02:53:59;5.00;99.90
8892;DHT22;4482;54.332;10.118;2023-05-03T02:56:26;5.00;99.90
8892;DHT22;4482;54.332;10.118;2023-05-03T02:58:53;5.00;99.90
8892;DHT22;4482;54.332;10.118;2023-05-03T03:01:19;4.90;99.90
8892;DHT22;4482;54.332;10.118;2023-05-03T03:03:46;4.90;99.90
8892;DHT22;4482;54.332;10.118;2023-05-03T03:06:13;5.00;99.90
8892;DHT22;4482;54.332;10.118;2023-05-03T03:08:41;4.90;99.90
8892;DHT22;4482;54.332;10.118;2023-05-03T03:11:07;4.90;99.90
8892;DHT22;4482;54.332;10.118;2023-05-03T03:13:34;4.90;99.90
8892;DHT22;4482;54.332;10.118;2023-05-03T03:16:04;5.00;99.90
8892;DHT22;4482;54.332;10.118;2023-05-03T03:18:30;5.00;99.90
8892;DHT22;4482;54.332;10.118;2023-05-03T03:20:59;5.00;99.90
8892;DHT22;4482;54.332;10.118;2023-05-03T03:23:26;5.00;99.90
8892;DHT22;4482;54.332;10.118;2023-05-03T03:25:54;4.90;99.90
8892;DHT22;4482;54.332;10.118;2023-05-03T03:28:20;5.00;99.90
8892;DHT22;4482;54.332;10.118;2023-05-03T03:30:47;4.90;99.90
8892;DHT22;4482;54.332;10.118;2023-05-03T03:33:14;4.90;99.90
8892;DHT22;4482;54.332;10.118;2023-05-03T03:35:41;4.90;99.90
8892;DHT22;4482;54.332;10.118;2023-05-03T03:38:07;4.90;99.90
8892;DHT22;4482;54.332;10.118;2023-05-03T03:40:34;4.90;99.90
8892;DHT22;4482;54.332;10.118;2023-05-03T03:43:02;4.90;99.90
8892;DHT22;4482;54.332;10.118;2023-05-03T03:45:28;4.90;99.90
8892;DHT22;4482;54.332;10.118;2023-05-03T03:47:55;4.90;99.90
8892;DHT22;4482;54.332;10.118;2023-05-03T03:50:22;4.90;99.90
8892;DHT22;4482;54.332;10.118;2023-05-03T03:52:49;5.00;99.90
8892;DHT22;4482;54.332;10.118;2023-05-03T03:55:16;5.00;99.90
8892;DHT22;4482;54.332;10.118;2023-05-03T03:57:42;5.00;99.90
8892;DHT22;4482;54.332;10.118;2023-05-03T04:00:11;5.10;99.90
8892;DHT22;4482;54.332;10.118;2023-05-03T04:02:39;5.10;99.90
8892;DHT22;4482;54.332;10.118;2023-05-03T04:05:05;5.10;99.90
8892;DHT22;4482;54.332;10.118;2023-05-03T04:07:32;5.10;99.90
8892;DHT22;4482;54.332;10.118;2023-05-03T04:09:59;5.30;99.90
8892;DHT22;4482;54.332;10.118;2023-05-03T04:12:25;5.70;99.90
8892;DHT22;4482;54.332;10.118;2023-05-03T04:14:52;5.60;99.90
8892;DHT22;4482;54.332;10.118;2023-05-03T04:17:20;5.50;99.90
8892;DHT22;4482;54.332;10.118;2023-05-03T04:19:47;5.40;99.90
8892;DHT22;4482;54.332;10.118;2023-05-03T04:22:13;5.40;99.90
8892;DHT22;4482;54.332;10.118;2023-05-03T04:24:40;5.30;99.90
8892;DHT22;4482;54.332;10.118;2023-05-03T04:27:08;5.30;99.90
8892;DHT22;4482;54.332;10.118;2023-05-03T04:29:35;5.40;99.90
8892;DHT22;4482;54.332;10.118;2023-05-03T04:32:03;5.40;99.90
8892;DHT22;4482;54.332;10.118;2023-05-03T04:34:32;5.50;99.90
8892;DHT22;4482;54.332;10.118;2023-05-03T04:36:59;5.50;99.90
8892;DHT22;4482;54.332;10.118;2023-05-03T04:39:26;5.60;99.90
8892;DHT22;4482;54.332;10.118;2023-05-03T04:41:52;5.70;99.90
8892;DHT22;4482;54.332;10.118;2023-05-03T04:44:19;5.80;99.90
8892;DHT22;4482;54.332;10.118;2023-05-03T04:46:46;5.80;99.90
8892;DHT22;4482;54.332;10.118;2023-05-03T04:49:14;6.00;99.90
8892;DHT22;4482;54.332;10.118;2023-05-03T04:51:42;6.00;99.90
8892;DHT22;4482;54.332;10.118;2023-05-03T04:54:08;6.30;99.90
8892;DHT22;4482;54.332;10.118;2023-05-03T04:56:35;6.70;99.90
8892;DHT22;4482;54.332;10.118;2023-05-03T04:59:01;6.80;99.90
8892;DHT22;4482;54.332;10.118;2023-05-03T05:01:29;6.80;99.90
8892;DHT22;4482;54.332;10.118;2023-05-03T05:03:57;6.70;99.90
8892;DHT22;4482;54.332;10.118;2023-05-03T05:06:23;6.90;99.90
8892;DHT22;4482;54.332;10.118;2023-05-03T05:08:51;6.90;99.90
8892;DHT22;4482;54.332;10.118;2023-05-03T05:11:18;7.10;99.90
8892;DHT22;4482;54.332;10.118;2023-05-03T05:13:46;7.20;99.90
8892;DHT22;4482;54.332;10.118;2023-05-03T05:16:12;7.40;99.90
8892;DHT22;4482;54.332;10.118;2023-05-03T05:18:40;7.70;99.90
8892;DHT22;4482;54.332;10.118;2023-05-03T05:21:06;7.90;99.90
8892;DHT22;4482;54.332;10.118;2023-05-03T05:23:33;8.10;99.90
8892;DHT22;4482;54.332;10.118;2023-05-03T05:26:01;8.40;99.90
8892;DHT22;4482;54.332;10.118;2023-05-03T05:28:29;8.80;99.90
8892;DHT22;4482;54.332;10.118;2023-05-03T05:30:56;9.30;99.90
8892;DHT22;4482;54.332;10.118;2023-05-03T05:33:23;10.00;99.90
8892;DHT22;4482;54.332;10.118;2023-05-03T05:35:49;10.60;99.90
8892;DHT22;4482;54.332;10.118;2023-05-03T05:38:16;11.10;99.90
8892;DHT22;4482;54.332;10.118;2023-05-03T05:40:43;11.60;99.90
8892;DHT22;4482;54.332;10.118;2023-05-03T05:43:11;12.10;99.90
8892;DHT22;4482;54.332;10.118;2023-05-03T05:45:37;12.60;99.90
8892;DHT22;4482;54.332;10.118;2023-05-03T05:48:04;12.90;99.90
8892;DHT22;4482;54.332;10.118;2023-05-03T05:50:31;13.10;99.90
8892;DHT22;4482;54.332;10.118;2023-05-03T05:52:57;13.20;99.90
8892;DHT22;4482;54.332;10.118;2023-05-03T05:55:24;13.10;99.90
8892;DHT22;4482;54.332;10.118;2023-05-03T05:57:51;13.10;99.90
8892;DHT22;4482;54.332;10.118;2023-05-03T06:00:19;13.50;99.90
8892;DHT22;4482;54.332;10.118;2023-05-03T06:02:46;13.90;99.90
8892;DHT22;4482;54.332;10.118;2023-05-03T06:05:13;14.20;99.90
8892;DHT22;4482;54.332;10.118;2023-05-03T06:07:39;14.60;99.90
8892;DHT22;4482;54.332;10.118;2023-05-03T06:10:06;14.80;98.90
8892;DHT22;4482;54.332;10.118;2023-05-03T06:12:33;14.60;99.80
8892;DHT22;4482;54.332;10.118;2023-05-03T06:15:00;14.60;99.90
8892;DHT22;4482;54.332;10.118;2023-05-03T06:17:28;14.80;99.70
8892;DHT22;4482;54.332;10.118;2023-05-03T06:19:55;14.90;98.80
8892;DHT22;4482;54.332;10.118;2023-05-03T06:22:22;14.70;98.80
8892;DHT22;4482;54.332;10.118;2023-05-03T06:24:49;14.80;98.70
8892;DHT22;4482;54.332;10.118;2023-05-03T06:27:15;15.20;98.10
8892;DHT22;4482;54.332;10.118;2023-05-03T06:29:42;15.40;97.20
8892;DHT22;4482;54.332;10.118;2023-05-03T06:32:10;15.30;97.50
8892;DHT22;4482;54.332;10.118;2023-05-03T06:34:38;15.60;96.70
8892;DHT22;4482;54.332;10.118;2023-05-03T06:37:04;15.60;96.20
8892;DHT22;4482;54.332;10.118;2023-05-03T06:39:31;15.50;96.60
8892;DHT22;4482;54.332;10.118;2023-05-03T06:41:58;16.00;96.20
8892;DHT22;4482;54.332;10.118;2023-05-03T06:44:25;16.40;94.40
8892;DHT22;4482;54.332;10.118;2023-05-03T06:46:52;16.10;94.60
8892;DHT22;4482;54.332;10.118;2023-05-03T06:49:18;16.00;94.60
8892;DHT22;4482;54.332;10.118;2023-05-03T06:51:47;16.30;94.30
8892;DHT22;4482;54.332;10.118;2023-05-03T06:54:14;16.60;93.60
8892;DHT22;4482;54.332;10.118;2023-05-03T06:56:40;16.50;94.10
8892;DHT22;4482;54.332;10.118;2023-05-03T06:59:07;17.10;92.90
8892;DHT22;4482;54.332;10.118;2023-05-03T07:01:34;16.90;93.50
8892;DHT22;4482;54.332;10.118;2023-05-03T07:04:00;16.30;93.10
8892;DHT22;4482;54.332;10.118;2023-05-03T07:06:27;15.20;94.50
8892;DHT22;4482;54.332;10.118;2023-05-03T07:08:55;14.90;95.20
8892;DHT22;4482;54.332;10.118;2023-05-03T07:11:22;14.10;96.50
8892;DHT22;4482;54.332;10.118;2023-05-03T07:13:49;13.50;98.00
8892;DHT22;4482;54.332;10.118;2023-05-03T07:16:16;13.50;99.90
8892;DHT22;4482;54.332;10.118;2023-05-03T07:18:43;15.00;97.30
8892;DHT22;4482;54.332;10.118;2023-05-03T07:21:10;14.80;95.50
8892;DHT22;4482;54.332;10.118;2023-05-03T07:23:37;15.10;96.70
8892;DHT22;4482;54.332;10.118;2023-05-03T07:26:05;16.20;94.00
8892;DHT22;4482;54.332;10.118;2023-05-03T07:28:32;15.10;93.20
8892;DHT22;4482;54.332;10.118;2023-05-03T07:30:58;14.00;94.30
8892;DHT22;4482;54.332;10.118;2023-05-03T07:33:25;13.20;95.80
8892;DHT22;4482;54.332;10.118;2023-05-03T07:35:52;12.70;97.40
8892;DHT22;4482;54.332;10.118;2023-05-03T07:38:18;12.50;99.90
8892;DHT22;4482;54.332;10.118;2023-05-03T07:40:45;12.30;99.90
8892;DHT22;4482;54.332;10.118;2023-05-03T07:43:13;12.10;99.90
8892;DHT22;4482;54.332;10.118;2023-05-03T07:45:41;11.70;99.90
8892;DHT22;4482;54.332;10.118;2023-05-03T07:48:07;11.50;99.90
8892;DHT22;4482;54.332;10.118;2023-05-03T07:50:34;11.30;99.90
8892;DHT22;4482;54.332;10.118;2023-05-03T07:53:01;10.90;99.90
8892;DHT22;4482;54.332;10.118;2023-05-03T07:55:27;10.80;99.90
8892;DHT22;4482;54.332;10.118;2023-05-03T07:57:57;10.70;99.90
8892;DHT22;4482;54.332;10.118;2023-05-03T08:00:25;10.70;99.90
8892;DHT22;4482;54.332;10.118;2023-05-03T08:02:52;10.70;99.90
8892;DHT22;4482;54.332;10.118;2023-05-03T08:05:19;10.70;99.90
8892;DHT22;4482;54.332;10.118;2023-05-03T08:07:45;13.20;99.90
8892;DHT22;4482;54.332;10.118;2023-05-03T08:10:12;15.60;93.60
8892;DHT22;4482;54.332;10.118;2023-05-03T08:12:39;15.10;91.60
8892;DHT22;4482;54.332;10.118;2023-05-03T08:15:06;14.30;92.30
8892;DHT22;4482;54.332;10.118;2023-05-03T08:17:39;13.40;93.30
8892;DHT22;4482;54.332;10.118;2023-05-03T08:20:07;12.60;93.50
8892;DHT22;4482;54.332;10.118;2023-05-03T08:22:34;12.10;94.60
8892;DHT22;4482;54.332;10.118;2023-05-03T08:25:02;12.10;95.80
8892;DHT22;4482;54.332;10.118;2023-05-03T08:27:29;12.80;99.90
8892;DHT22;4482;54.332;10.118;2023-05-03T08:29:55;16.10;93.70
8892;DHT22;4482;54.332;10.118;2023-05-03T08:32:22;19.10;80.70
8892;DHT22;4482;54.332;10.118;2023-05-03T08:34:50;18.50;74.90
8892;DHT22;4482;54.332;10.118;2023-05-03T08:37:17;16.50;77.00
8892;DHT22;4482;54.332;10.118;2023-05-03T08:39:44;15.10;81.30
8892;DHT22;4482;54.332;10.118;2023-05-03T08:42:11;14.00;85.70
8892;DHT22;4482;54.332;10.118;2023-05-03T08:44:42;13.30;88.30
8892;DHT22;4482;54.332;10.118;2023-05-03T08:47:09;12.70;90.60
8892;DHT22;4482;54.332;10.118;2023-05-03T08:49:37;12.30;92.50
8892;DHT22;4482;54.332;10.118;2023-05-03T08:52:06;12.20;93.50
8892;DHT22;4482;54.332;10.118;2023-05-03T08:54:34;12.20;94.50
8892;DHT22;4482;54.332;10.118;2023-05-03T08:57:01;12.10;95.20
8892;DHT22;4482;54.332;10.118;2023-05-03T08:59:28;12.10;95.70
8892;DHT22;4482;54.332;10.118;2023-05-03T09:01:54;12.20;95.50
8892;DHT22;4482;54.332;10.118;2023-05-03T09:04:29;12.20;96.20
8892;DHT22;4482;54.332;10.118;2023-05-03T09:07:07;12.30;96.70
8892;DHT22;4482;54.332;10.118;2023-05-03T09:09:33;12.70;96.60
8892;DHT22;4482;54.332;10.118;2023-05-03T09:12:00;13.30;96.80
8892;DHT22;4482;54.332;10.118;2023-05-03T09:14:27;13.70;94.60
8892;DHT22;4482;54.332;10.118;2023-05-03T09:16:54;13.60;93.50
8892;DHT22;4482;54.332;10.118;2023-05-03T09:19:20;13.50;93.70
8892;DHT22;4482;54.332;10.118;2023-05-03T09:21:48;13.50;93.50
8892;DHT22;4482;54.332;10.118;2023-05-03T09:24:17;13.40;93.60
8892;DHT22;4482;54.332;10.118;2023-05-03T09:26:44;13.40;93.30
8892;DHT22;4482;54.332;10.118;2023-05-03T09:29:25;13.90;92.50
8892;DHT22;4482;54.332;10.118;2023-05-03T09:31:56;13.90;92.30
8892;DHT22;4482;54.332;10.118;2023-05-03T09:34:23;13.60;93.10
8892;DHT22;4482;54.332;10.118;2023-05-03T09:36:50;13.40;93.30
8892;DHT22;4482;54.332;10.118;2023-05-03T09:39:18;13.60;93.50
8892;DHT22;4482;54.332;10.118;2023-05-03T09:41:45;14.60;92.00
8892;DHT22;4482;54.332;10.118;2023-05-03T09:44:12;15.60;89.00
8892;DHT22;4482;54.332;10.118;2023-05-03T09:46:38;15.60;82.50
8892;DHT22;4482;54.332;10.118;2023-05-03T09:49:05;15.10;80.90
8892;DHT22;4482;54.332;10.118;2023-05-03T09:51:32;14.50;83.90
8892;DHT22;4482;54.332;10.118;2023-05-03T09:53:59;14.00;86.00
8892;DHT22;4482;54.332;10.118;2023-05-03T09:56:27;13.50;88.00
8892;DHT22;4482;54.332;10.118;2023-05-03T09:58:54;13.10;90.60
8892;DHT22;4482;54.332;10.118;2023-05-03T10:01:20;12.70;91.50
8892;DHT22;4482;54.332;10.118;2023-05-03T10:03:51;12.30;92.70
8892;DHT22;4482;54.332;10.118;2023-05-03T10:06:23;12.10;93.60
8892;DHT22;4482;54.332;10.118;2023-05-03T10:08:51;12.20;94.20
8892;DHT22;4482;54.332;10.118;2023-05-03T10:11:18;12.10;93.80
8892;DHT22;4482;54.332;10.118;2023-05-03T10:13:46;12.00;94.10
8892;DHT22;4482;54.332;10.118;2023-05-03T10:16:14;12.00;95.00
8892;DHT22;4482;54.332;10.118;2023-05-03T10:18:43;12.10;96.50
8892;DHT22;4482;54.332;10.118;2023-05-03T10:21:13;12.30;95.60
8892;DHT22;4482;54.332;10.118;2023-05-03T10:26:21;12.90;95.00
8892;DHT22;4482;54.332;10.118;2023-05-03T10:28:50;13.60;91.90
8892;DHT22;4482;54.332;10.118;2023-05-03T10:34:21;13.70;90.20
8892;DHT22;4482;54.332;10.118;2023-05-03T10:36:47;13.70;90.10
8892;DHT22;4482;54.332;10.118;2023-05-03T10:39:17;13.80;90.30
8892;DHT22;4482;54.332;10.118;2023-05-03T10:41:43;13.80;90.40
8892;DHT22;4482;54.332;10.118;2023-05-03T10:44:27;13.80;90.60
8892;DHT22;4482;54.332;10.118;2023-05-03T10:46:54;13.70;90.40
8892;DHT22;4482;54.332;10.118;2023-05-03T10:49:21;13.60;91.10
8892;DHT22;4482;54.332;10.118;2023-05-03T10:51:48;13.40;91.60
8892;DHT22;4482;54.332;10.118;2023-05-03T10:54:14;13.30;92.30
8892;DHT22;4482;54.332;10.118;2023-05-03T10:56:50;12.90;92.80
8892;DHT22;4482;54.332;10.118;2023-05-03T10:59:17;12.80;93.20
8892;DHT22;4482;54.332;10.118;2023-05-03T11:01:45;12.70;93.30
8892;DHT22;4482;54.332;10.118;2023-05-03T11:04:17;12.70;93.70
8892;DHT22;4482;54.332;10.118;2023-05-03T11:06:48;12.80;94.20
8892;DHT22;4482;54.332;10.118;2023-05-03T11:09:16;12.90;94.30
8892;DHT22;4482;54.332;10.118;2023-05-03T11:11:42;13.20;94.30
8892;DHT22;4482;54.332;10.118;2023-05-03T11:14:09;13.50;93.60
8892;DHT22;4482;54.332;10.118;2023-05-03T11:16:36;13.40;93.60
8892;DHT22;4482;54.332;10.118;2023-05-03T11:19:06;13.30;93.30
8892;DHT22;4482;54.332;10.118;2023-05-03T11:21:33;13.20;93.80
8892;DHT22;4482;54.332;10.118;2023-05-03T11:24:00;13.20;92.90
8892;DHT22;4482;54.332;10.118;2023-05-03T11:26:27;13.40;92.80
8892;DHT22;4482;54.332;10.118;2023-05-03T11:28:54;13.70;92.20
8892;DHT22;4482;54.332;10.118;2023-05-03T11:31:20;14.00;91.60
8892;DHT22;4482;54.332;10.118;2023-05-03T11:33:47;14.30;90.60
8892;DHT22;4482;54.332;10.118;2023-05-03T11:36:16;16.50;90.00
8892;DHT22;4482;54.332;10.118;2023-05-03T11:38:42;19.10;80.60
8892;DHT22;4482;54.332;10.118;2023-05-03T11:41:11;19.70;73.60
8892;DHT22;4482;54.332;10.118;2023-05-03T11:43:41;18.60;71.10
8892;DHT22;4482;54.332;10.118;2023-05-03T11:46:08;17.20;72.40
8892;DHT22;4482;54.332;10.118;2023-05-03T11:48:36;16.40;73.50
8892;DHT22;4482;54.332;10.118;2023-05-03T11:51:05;15.50;76.60
8892;DHT22;4482;54.332;10.118;2023-05-03T11:53:34;15.00;78.90
8892;DHT22;4482;54.332;10.118;2023-05-03T11:56:02;14.80;80.50
8892;DHT22;4482;54.332;10.118;2023-05-03T11:58:28;14.50;85.80
8892;DHT22;4482;54.332;10.118;2023-05-03T12:00:56;14.30;84.10
8892;DHT22;4482;54.332;10.118;2023-05-03T12:03:23;14.10;84.30
8892;DHT22;4482;54.332;10.118;2023-05-03T12:05:50;13.90;85.90
8892;DHT22;4482;54.332;10.118;2023-05-03T12:08:18;13.90;86.10
8892;DHT22;4482;54.332;10.118;2023-05-03T12:10:47;13.80;86.90
8892;DHT22;4482;54.332;10.118;2023-05-03T12:13:14;13.60;88.50
8892;DHT22;4482;54.332;10.118;2023-05-03T12:15:40;13.70;88.10
8892;DHT22;4482;54.332;10.118;2023-05-03T12:18:10;13.40;89.00
8892;DHT22;4482;54.332;10.118;2023-05-03T12:20:38;13.60;89.00
8892;DHT22;4482;54.332;10.118;2023-05-03T12:23:05;13.70;88.60
8892;DHT22;4482;54.332;10.118;2023-05-03T12:25:33;13.60;88.30
8892;DHT22;4482;54.332;10.118;2023-05-03T12:28:02;13.50;89.30
8892;DHT22;4482;54.332;10.118;2023-05-03T12:30:29;13.40;90.60
8892;DHT22;4482;54.332;10.118;2023-05-03T12:32:56;13.30;91.00
8892;DHT22;4482;54.332;10.118;2023-05-03T12:35:24;13.40;91.20
8892;DHT22;4482;54.332;10.118;2023-05-03T12:37:51;13.50;90.80
8892;DHT22;4482;54.332;10.118;2023-05-03T12:40:17;13.40;90.70
8892;DHT22;4482;54.332;10.118;2023-05-03T12:42:45;13.50;90.70
8892;DHT22;4482;54.332;10.118;2023-05-03T12:45:13;13.60;91.90
8892;DHT22;4482;54.332;10.118;2023-05-03T12:47:39;13.80;91.00
8892;DHT22;4482;54.332;10.118;2023-05-03T12:50:06;14.10;89.70
8892;DHT22;4482;54.332;10.118;2023-05-03T12:52:33;14.30;88.00
8892;DHT22;4482;54.332;10.118;2023-05-03T12:55:01;14.30;86.70
8892;DHT22;4482;54.332;10.118;2023-05-03T12:57:28;14.40;86.70
8892;DHT22;4482;54.332;10.118;2023-05-03T12:59:55;14.50;86.30
8892;DHT22;4482;54.332;10.118;2023-05-03T13:02:23;14.30;86.70
8892;DHT22;4482;54.332;10.118;2023-05-03T13:04:50;14.20;85.70
8892;DHT22;4482;54.332;10.118;2023-05-03T13:07:20;14.20;85.00
8892;DHT22;4482;54.332;10.118;2023-05-03T13:09:49;14.10;85.40
8892;DHT22;4482;54.332;10.118;2023-05-03T13:12:16;14.00;86.90
8892;DHT22;4482;54.332;10.118;2023-05-03T13:14:44;14.00;86.30
8892;DHT22;4482;54.332;10.118;2023-05-03T13:17:12;14.00;86.50
8892;DHT22;4482;54.332;10.118;2023-05-03T13:19:40;14.10;86.40
8892;DHT22;4482;54.332;10.118;2023-05-03T13:22:07;14.20;85.30
8892;DHT22;4482;54.332;10.118;2023-05-03T13:24:34;14.40;85.00
8892;DHT22;4482;54.332;10.118;2023-05-03T13:27:01;14.40;85.40
8892;DHT22;4482;54.332;10.118;2023-05-03T13:29:28;14.50;83.60
8892;DHT22;4482;54.332;10.118;2023-05-03T13:31:55;14.40;82.60
8892;DHT22;4482;54.332;10.118;2023-05-03T13:34:22;14.30;84.00
8892;DHT22;4482;54.332;10.118;2023-05-03T13:36:50;14.30;83.90
8892;DHT22;4482;54.332;10.118;2023-05-03T13:39:16;14.50;84.20
8892;DHT22;4482;54.332;10.118;2023-05-03T13:41:43;14.30;84.60
8892;DHT22;4482;54.332;10.118;2023-05-03T13:44:10;14.20;85.80
8892;DHT22;4482;54.332;10.118;2023-05-03T13:46:37;14.00;86.50
8892;DHT22;4482;54.332;10.118;2023-05-03T13:49:04;13.90;87.10
8892;DHT22;4482;54.332;10.118;2023-05-03T13:51:32;13.70;88.20
8892;DHT22;4482;54.332;10.118;2023-05-03T13:54:00;13.60;88.60
8892;DHT22;4482;54.332;10.118;2023-05-03T13:56:28;13.50;89.10
8892;DHT22;4482;54.332;10.118;2023-05-03T13:58:55;13.50;90.20
8892;DHT22;4482;54.332;10.118;2023-05-03T14:01:22;13.50;90.70
8892;DHT22;4482;54.332;10.118;2023-05-03T14:03:48;13.40;90.00
8892;DHT22;4482;54.332;10.118;2023-05-03T14:06:15;13.40;89.70
8892;DHT22;4482;54.332;10.118;2023-05-03T14:08:42;13.40;88.40
8892;DHT22;4482;54.332;10.118;2023-05-03T14:11:13;13.40;89.90
8892;DHT22;4482;54.332;10.118;2023-05-03T14:13:40;13.40;90.20
8892;DHT22;4482;54.332;10.118;2023-05-03T14:16:07;13.30;90.60
8892;DHT22;4482;54.332;10.118;2023-05-03T14:18:40;13.20;90.30
8892;DHT22;4482;54.332;10.118;2023-05-03T14:21:07;13.10;90.30
8892;DHT22;4482;54.332;10.118;2023-05-03T14:23:33;13.00;90.40
8892;DHT22;4482;54.332;10.118;2023-05-03T14:26:00;13.10;90.70
8892;DHT22;4482;54.332;10.118;2023-05-03T14:28:28;13.20;90.50
8892;DHT22;4482;54.332;10.118;2023-05-03T14:30:55;13.20;90.20
8892;DHT22;4482;54.332;10.118;2023-05-03T14:33:21;13.40;91.70
8892;DHT22;4482;54.332;10.118;2023-05-03T14:35:48;13.40;91.40
8892;DHT22;4482;54.332;10.118;2023-05-03T14:38:15;13.30;90.10
8892;DHT22;4482;54.332;10.118;2023-05-03T14:40:41;13.20;90.10
8892;DHT22;4482;54.332;10.118;2023-05-03T14:43:09;13.20;90.10
8892;DHT22;4482;54.332;10.118;2023-05-03T14:45:37;13.20;90.00
8892;DHT22;4482;54.332;10.118;2023-05-03T14:48:04;13.30;89.90
8892;DHT22;4482;54.332;10.118;2023-05-03T14:50:31;13.40;89.30
8892;DHT22;4482;54.332;10.118;2023-05-03T14:52:58;13.50;88.60
8892;DHT22;4482;54.332;10.118;2023-05-03T14:55:24;13.40;88.90
8892;DHT22;4482;54.332;10.118;2023-05-03T14:57:51;13.50;87.80
8892;DHT22;4482;54.332;10.118;2023-05-03T15:00:19;13.50;86.10
8892;DHT22;4482;54.332;10.118;2023-05-03T15:02:52;13.50;85.50
8892;DHT22;4482;54.332;10.118;2023-05-03T15:05:20;13.40;84.30
8892;DHT22;4482;54.332;10.118;2023-05-03T15:07:47;13.40;84.20
8892;DHT22;4482;54.332;10.118;2023-05-03T15:10:13;13.30;84.90
8892;DHT22;4482;54.332;10.118;2023-05-03T15:12:40;13.40;85.60
8892;DHT22;4482;54.332;10.118;2023-05-03T15:15:07;13.30;86.10
8892;DHT22;4482;54.332;10.118;2023-05-03T15:17:36;13.40;85.60
8892;DHT22;4482;54.332;10.118;2023-05-03T15:20:05;13.40;85.60
8892;DHT22;4482;54.332;10.118;2023-05-03T15:22:34;13.30;85.60
8892;DHT22;4482;54.332;10.118;2023-05-03T15:25:01;13.10;86.10
8892;DHT22;4482;54.332;10.118;2023-05-03T15:27:27;13.10;86.50
8892;DHT22;4482;54.332;10.118;2023-05-03T15:29:54;13.20;88.00
8892;DHT22;4482;54.332;10.118;2023-05-03T15:32:21;13.10;90.10
8892;DHT22;4482;54.332;10.118;2023-05-03T15:34:49;13.20;89.80
8892;DHT22;4482;54.332;10.118;2023-05-03T15:37:17;13.10;90.60
8892;DHT22;4482;54.332;10.118;2023-05-03T15:39:44;13.20;91.40
8892;DHT22;4482;54.332;10.118;2023-05-03T15:42:10;13.10;90.50
8892;DHT22;4482;54.332;10.118;2023-05-03T15:44:37;12.90;90.90
8892;DHT22;4482;54.332;10.118;2023-05-03T15:47:04;12.90;91.20
8892;DHT22;4482;54.332;10.118;2023-05-03T15:49:30;12.90;90.90
8892;DHT22;4482;54.332;10.118;2023-05-03T15:51:57;12.90;90.00
8892;DHT22;4482;54.332;10.118;2023-05-03T15:54:25;12.90;89.10
8892;DHT22;4482;54.332;10.118;2023-05-03T15:56:52;12.90;88.00
8892;DHT22;4482;54.332;10.118;2023-05-03T15:59:19;12.70;87.20